Time;durP1;ratioP1;P1;durP2;ratioP2;P2;SDS_P1;SDS_P2;PMS_P1;PMS_P2;Temp;Humidity;BMP_temperature;BMP_pressure;BME280_temperature;BME280_humidity;BME280_pressure;Samples;Min_cycle;Max_cycle;Signal;HPM_P1;HPM_P2
2023/12/06 00:00:16;;;;;;;53.45;27.05;;;;;;;5.88;100.00;100040.06;5067604;28;20413;-79
2023/12/06 00:02:42;;;;;;;58.05;26.88;;;;;;;5.53;100.00;100016.91;5049635;28;20024;-78
2023/12/06 00:05:10;;;;;;;49.53;25.33;;;;;;;5.77;100.00;100026.31;5049339;28;20474;-79
2023/12/06 00:07:37;;;;;;;52.95;26.95;;;;;;;5.67;100.00;100039.03;5068032;28;20032;-80
2023/12/06 00:10:02;;;;;;;48.92;25.60;;;;;;;5.57;100.00;100028.75;5049731;28;20032;-80
2023/12/06 00:12:28;;;;;;;49.15;25.75;;;;;;;5.34;100.00;99989.22;5067651;28;20565;-77
2023/12/06 00:14:53;;;;;;;62.22;28.00;;;;;;;5.74;100.00;100018.75;5070583;28;20028;-78
2023/12/06 00:17:19;;;;;;;52.83;26.35;;;;;;;5.81;100.00;100013.53;5071917;28;20111;-78
2023/12/06 00:19:44;;;;;;;57.45;27.88;;;;;;;5.81;100.00;100016.19;5071219;28;20086;-77
2023/12/06 00:22:09;;;;;;;55.75;25.27;;;;;;;5.49;100.00;100010.34;5071740;28;20746;-78
2023/12/06 00:24:35;;;;;;;55.70;27.38;;;;;;;5.47;100.00;100007.06;5071676;28;20036;-78
2023/12/06 00:27:00;;;;;;;57.35;27.45;;;;;;;5.77;100.00;100014.91;5071264;28;20558;-80
2023/12/06 00:29:26;;;;;;;58.08;26.88;;;;;;;5.73;100.00;100000.41;5071521;28;20062;-79
2023/12/06 00:31:51;;;;;;;52.92;25.33;;;;;;;5.97;100.00;100023.88;5071684;28;20030;-77
2023/12/06 00:34:16;;;;;;;60.88;28.27;;;;;;;5.65;100.00;99982.84;5071361;28;20644;-79
2023/12/06 00:36:42;;;;;;;58.15;27.35;;;;;;;5.73;100.00;100013.66;5071428;28;20035;-78
2023/12/06 00:39:08;;;;;;;60.78;28.65;;;;;;;5.83;100.00;100022.09;5053286;28;20055;-80
2023/12/06 00:41:33;;;;;;;57.53;27.80;;;;;;;5.52;100.00;100007.34;5071446;28;20086;-79
2023/12/06 00:44:02;;;;;;;62.92;28.33;;;;;;;5.76;100.00;100021.19;5071163;28;20036;-78
2023/12/06 00:46:27;;;;;;;60.88;28.73;;;;;;;5.46;100.00;99968.41;5071298;28;20048;-77
2023/12/06 00:48:53;;;;;;;64.90;28.90;;;;;;;5.66;100.00;99983.66;5071070;28;20064;-76
2023/12/06 00:51:18;;;;;;;58.20;27.63;;;;;;;5.76;100.00;99984.16;5071004;28;20055;-81
2023/12/06 00:53:43;;;;;;;60.85;29.67;;;;;;;5.91;100.00;100011.38;5070458;28;20032;-78
2023/12/06 00:56:13;;;;;;;67.28;29.75;;;;;;;5.84;100.00;100018.44;5070891;28;20032;-77
2023/12/06 00:58:40;;;;;;;66.05;27.95;;;;;;;5.42;100.00;99999.69;5070811;28;20115;-78
2023/12/06 01:01:05;;;;;;;63.95;27.33;;;;;;;5.63;100.00;100016.59;5070990;28;20036;-78
2023/12/06 01:03:31;;;;;;;63.42;27.88;;;;;;;5.34;100.00;99991.06;5070590;28;20036;-77
2023/12/06 01:05:56;;;;;;;61.22;26.95;;;;;;;5.51;100.00;100005.69;5070802;28;20037;-78
2023/12/06 01:08:21;;;;;;;65.15;29.73;;;;;;;5.41;100.00;100005.16;5070718;28;20107;-79
2023/12/06 01:10:47;;;;;;;61.70;29.13;;;;;;;5.58;100.00;99989.91;5070517;28;20028;-77
2023/12/06 01:13:12;;;;;;;67.97;29.60;;;;;;;5.72;100.00;99982.91;5070743;28;20022;-79
2023/12/06 01:15:39;;;;;;;64.70;29.98;;;;;;;5.47;100.00;99954.16;5071034;28;20040;-78
2023/12/06 01:18:05;;;;;;;69.75;30.63;;;;;;;5.68;100.00;99976.34;5070492;28;20024;-79
2023/12/06 01:20:30;;;;;;;69.80;33.63;;;;;;;5.51;100.00;99955.44;5069980;28;20040;-77
2023/12/06 01:22:55;;;;;;;63.90;31.80;;;;;;;5.69;100.00;99968.22;5052300;28;20024;-79
2023/12/06 01:25:21;;;;;;;66.25;30.85;;;;;;;5.75;100.00;99966.66;5070511;28;20043;-78
2023/12/06 01:27:47;;;;;;;69.50;33.75;;;;;;;5.73;100.00;99947.50;5052402;28;20020;-77
2023/12/06 01:30:12;;;;;;;65.90;30.95;;;;;;;5.60;100.00;99942.91;5052326;28;20055;-79
2023/12/06 01:32:39;;;;;;;65.30;29.73;;;;;;;5.68;100.00;99966.59;5051155;28;20409;-78
2023/12/06 01:35:05;;;;;;;61.13;30.85;;;;;;;5.57;100.00;99946.72;5050031;28;20433;-77
2023/12/06 01:37:30;;;;;;;69.00;33.83;;;;;;;5.74;100.00;99941.19;5050112;28;20033;-78
2023/12/06 01:39:56;;;;;;;67.05;32.70;;;;;;;5.80;100.00;99943.06;5059807;28;20406;-78
2023/12/06 01:42:21;;;;;;;68.93;30.35;;;;;;;5.79;100.00;99936.16;5070266;28;20040;-79
2023/12/06 01:44:47;;;;;;;73.22;33.72;;;;;;;5.88;100.00;99950.88;5070001;28;20115;-78
2023/12/06 01:47:12;;;;;;;81.45;35.03;;;;;;;5.76;100.00;99931.22;5070103;28;20460;-79
2023/12/06 01:49:39;;;;;;;71.20;34.03;;;;;;;5.61;100.00;99947.19;5069918;28;20028;-77
2023/12/06 01:52:06;;;;;;;75.57;36.47;;;;;;;5.52;100.00;99927.97;5070254;28;20481;-79
2023/12/06 01:54:31;;;;;;;80.82;34.25;;;;;;;5.71;100.00;99928.34;5069570;28;20478;-77
2023/12/06 01:56:57;;;;;;;75.60;34.13;;;;;;;5.70;100.00;99932.00;5069968;28;20031;-77
2023/12/06 01:59:23;;;;;;;77.47;33.13;;;;;;;5.67;100.00;99927.09;5051397;28;20107;-78
2023/12/06 02:01:49;;;;;;;77.20;32.17;;;;;;;5.63;100.00;99919.53;5034380;28;20052;-78
2023/12/06 02:04:14;;;;;;;67.47;32.65;;;;;;;5.62;100.00;99931.13;5066387;28;20455;-77
2023/12/06 02:06:40;;;;;;;71.68;32.53;;;;;;;5.56;100.00;99921.31;5069667;28;20037;-78
2023/12/06 02:09:06;;;;;;;69.88;32.17;;;;;;;5.33;100.00;99905.63;5070131;28;20047;-77
2023/12/06 02:11:31;;;;;;;73.03;33.30;;;;;;;5.40;100.00;99901.22;5069347;28;20032;-78
2023/12/06 02:13:57;;;;;;;68.70;32.97;;;;;;;5.39;100.00;99896.09;5050997;28;20115;-78
2023/12/06 02:16:23;;;;;;;79.15;33.72;;;;;;;5.38;100.00;99897.94;5069863;28;20158;-77
2023/12/06 02:18:48;;;;;;;84.45;33.35;;;;;;;5.37;100.00;99896.31;5069509;28;20112;-79
2023/12/06 02:21:14;;;;;;;76.63;31.83;;;;;;;5.01;100.00;99886.59;5069106;28;20185;-78
2023/12/06 02:23:43;;;;;;;76.47;32.55;;;;;;;5.28;100.00;99904.56;5069410;28;20043;-79
2023/12/06 02:26:08;;;;;;;89.60;35.17;;;;;;;5.13;100.00;99873.69;5069415;28;20028;-79
2023/12/06 02:28:34;;;;;;;87.03;34.60;;;;;;;5.20;100.00;99879.84;5069311;28;20113;-78
2023/12/06 02:30:59;;;;;;;94.97;37.83;;;;;;;5.29;100.00;99848.00;5068899;28;20394;-78
2023/12/06 02:33:26;;;;;;;82.07;34.55;;;;;;;5.53;100.00;99871.41;5068786;28;20036;-78
2023/12/06 02:35:57;;;;;;;91.07;34.08;;;;;;;5.56;100.00;99873.69;5051300;28;20492;-77
2023/12/06 02:38:23;;;;;;;98.60;36.80;;;;;;;5.69;100.00;99877.44;5068459;28;20378;-78
2023/12/06 02:40:52;;;;;;;95.03;37.00;;;;;;;5.70;100.00;99864.03;5050716;28;20051;-78
2023/12/06 02:43:18;;;;;;;94.63;36.58;;;;;;;5.52;100.00;99845.97;5064467;28;20485;-79
2023/12/06 02:45:43;;;;;;;96.70;38.63;;;;;;;5.51;100.00;99827.66;5068889;28;20031;-79
2023/12/06 02:48:09;;;;;;;99.05;37.30;;;;;;;5.81;100.00;99875.91;5069104;28;20028;-78
2023/12/06 02:50:34;;;;;;;98.28;36.70;;;;;;;5.40;100.00;99848.31;5068909;28;20040;-79
2023/12/06 02:53:00;;;;;;;90.35;35.72;;;;;;;5.72;100.00;99890.28;5068807;28;20024;-78
2023/12/06 02:55:25;;;;;;;100.43;35.08;;;;;;;5.75;100.00;99881.97;5051010;28;20194;-80
2023/12/06 02:57:51;;;;;;;104.93;36.92;;;;;;;5.49;100.00;99846.34;5068632;28;20020;-79
2023/12/06 03:00:17;;;;;;;99.35;40.55;;;;;;;5.64;100.00;99870.91;5068518;28;20037;-81
2023/12/06 03:02:42;;;;;;;101.30;38.70;;;;;;;5.67;100.00;99882.13;5068652;28;20528;-79
2023/12/06 03:05:08;;;;;;;103.90;38.42;;;;;;;5.69;100.00;99882.75;5068685;28;20039;-78
2023/12/06 03:07:33;;;;;;;104.28;39.53;;;;;;;5.66;100.00;99877.81;5050821;28;20039;-78
2023/12/06 03:09:59;;;;;;;102.60;39.28;;;;;;;5.27;100.00;99857.97;5068990;28;20029;-80
2023/12/06 03:12:24;;;;;;;114.50;40.15;;;;;;;5.52;100.00;99855.75;5068508;28;20027;-77
2023/12/06 03:14:50;;;;;;;108.43;38.05;;;;;;;5.66;100.00;99864.59;5068321;28;20029;-77
2023/12/06 03:17:15;;;;;;;108.22;37.55;;;;;;;5.71;100.00;99864.84;5068642;28;20873;-79
2023/12/06 03:19:41;;;;;;;113.55;36.47;;;;;;;5.64;100.00;99868.25;5050136;28;20024;-78
2023/12/06 03:22:06;;;;;;;123.80;39.60;;;;;;;5.56;100.00;99831.38;5068417;28;20032;-78
2023/12/06 03:24:32;;;;;;;115.55;37.25;;;;;;;5.81;100.00;99865.34;5050152;28;20123;-78
2023/12/06 03:26:57;;;;;;;114.22;37.45;;;;;;;5.55;100.00;99850.06;5063265;28;20020;-78
2023/12/06 03:29:22;;;;;;;131.43;38.05;;;;;;;5.56;100.00;99857.00;5058529;28;21430;-77
2023/12/06 03:31:48;;;;;;;129.65;39.42;;;;;;;5.76;100.00;99873.00;5066515;28;20036;-78
2023/12/06 03:34:13;;;;;;;116.78;38.60;;;;;;;5.66;100.00;99880.47;5066467;28;20485;-78
2023/12/06 03:36:39;;;;;;;111.75;36.08;;;;;;;5.71;100.00;99880.72;5040187;28;20182;-79
2023/12/06 03:39:04;;;;;;;129.88;39.67;;;;;;;5.70;100.00;99868.50;5056942;28;20021;-78
2023/12/06 03:41:29;;;;;;;141.52;41.10;;;;;;;5.56;100.00;99846.44;5062367;28;20028;-78
2023/12/06 03:43:55;;;;;;;137.35;39.63;;;;;;;5.42;100.00;99805.81;5064988;28;20040;-77
2023/12/06 03:46:20;;;;;;;128.00;42.17;;;;;;;5.63;100.00;99848.09;5058744;28;20390;-78
2023/12/06 03:48:46;;;;;;;147.52;41.97;;;;;;;5.64;100.00;99848.94;5039574;28;20175;-78
2023/12/06 03:51:11;;;;;;;123.38;36.75;;;;;;;5.64;100.00;99860.31;5060351;28;20387;-78
2023/12/06 03:53:38;;;;;;;147.35;43.88;;;;;;;5.44;100.00;99840.84;5063224;28;20107;-78
2023/12/06 03:56:03;;;;;;;138.93;38.88;;;;;;;5.72;100.00;99853.25;5049518;28;20024;-78
2023/12/06 03:58:29;;;;;;;150.82;40.35;;;;;;;5.60;100.00;99847.69;5058551;28;20784;-78
2023/12/06 04:00:55;;;;;;;140.32;39.65;;;;;;;5.66;100.00;99849.56;5060817;28;20024;-78
2023/12/06 04:03:21;;;;;;;138.85;40.75;;;;;;;5.68;100.00;99865.22;5046376;28;20020;-78
2023/12/06 04:05:47;;;;;;;132.25;36.50;;;;;;;5.85;100.00;99866.59;5067644;28;20032;-77
2023/12/06 04:08:13;;;;;;;140.30;36.22;;;;;;;5.64;100.00;99831.22;5049460;28;20409;-79
2023/12/06 04:10:38;;;;;;;138.40;38.08;;;;;;;5.76;100.00;99862.44;5061518;28;20485;-79
2023/12/06 04:13:04;;;;;;;126.60;35.55;;;;;;;5.67;100.00;99837.13;5067569;28;20489;-78
2023/12/06 04:15:33;;;;;;;117.47;35.10;;;;;;;5.70;100.00;99842.03;5067584;28;20029;-78
2023/12/06 04:17:58;;;;;;;133.52;37.78;;;;;;;5.47;100.00;99843.06;5067625;28;20035;-79
2023/12/06 04:20:24;;;;;;;129.60;33.58;;;;;;;5.27;100.00;99805.91;5067582;28;20119;-79
2023/12/06 04:22:49;;;;;;;128.70;35.85;;;;;;;5.64;100.00;99838.34;5067462;28;20028;-78
2023/12/06 04:25:15;;;;;;;117.13;35.78;;;;;;;5.48;100.00;99844.72;5068318;28;20032;-77
2023/12/06 04:27:42;;;;;;;143.93;41.75;;;;;;;5.64;100.00;99848.94;5067670;28;20093;-79
2023/12/06 04:30:11;;;;;;;152.50;40.55;;;;;;;5.68;100.00;99854.63;5067455;28;20025;-79
2023/12/06 04:32:36;;;;;;;157.60;41.88;;;;;;;5.68;100.00;99844.06;5067390;28;20032;-78
2023/12/06 04:35:02;;;;;;;166.65;43.70;;;;;;;5.69;100.00;99846.50;5049537;28;20039;-77
2023/12/06 04:37:28;;;;;;;130.07;37.40;;;;;;;5.80;100.00;99858.38;5067948;28;20036;-77
2023/12/06 04:39:53;;;;;;;123.10;34.65;;;;;;;5.59;100.00;99820.38;5067238;28;20032;-79
2023/12/06 04:42:19;;;;;;;143.80;39.28;;;;;;;5.73;100.00;99837.19;5067726;28;20059;-79
2023/12/06 04:44:44;;;;;;;123.88;40.08;;;;;;;5.61;100.00;99826.31;5067452;28;20116;-78
2023/12/06 04:47:09;;;;;;;134.40;41.03;;;;;;;5.54;100.00;99817.50;5066922;28;20024;-79
2023/12/06 04:49:35;;;;;;;121.05;36.22;;;;;;;5.75;100.00;99837.81;5049349;28;20025;-78
2023/12/06 04:52:03;;;;;;;136.23;34.42;;;;;;;5.83;100.00;99842.13;5067368;28;20033;-82
2023/12/06 04:54:28;;;;;;;107.05;31.92;;;;;;;5.70;100.00;99823.50;5067069;28;20031;-78
2023/12/06 04:56:54;;;;;;;113.22;32.08;;;;;;;5.88;100.00;99837.06;5067064;28;20028;-78
2023/12/06 04:59:19;;;;;;;123.75;33.75;;;;;;;5.85;100.00;99832.19;5049390;28;20440;-78
2023/12/06 05:01:45;;;;;;;107.85;31.08;;;;;;;5.90;100.00;99847.47;5052537;28;20032;-77
2023/12/06 05:04:10;;;;;;;134.88;33.45;;;;;;;5.73;100.00;99833.72;5070955;28;20560;-79
2023/12/06 05:06:36;;;;;;;136.60;33.35;;;;;;;5.82;100.00;99824.63;5071026;28;20024;-77
2023/12/06 05:09:02;;;;;;;134.00;35.45;;;;;;;5.77;100.00;99827.03;5070872;28;20040;-79
2023/12/06 05:11:27;;;;;;;142.32;34.53;;;;;;;5.69;100.00;99829.84;5070966;28;20033;-80
2023/12/06 05:13:53;;;;;;;125.95;34.80;;;;;;;5.60;100.00;99835.25;5070534;28;20025;-79
2023/12/06 05:16:18;;;;;;;132.73;34.45;;;;;;;5.18;100.00;99817.63;5072195;28;20025;-78
2023/12/06 05:18:43;;;;;;;125.50;36.35;;;;;;;5.42;100.00;99846.31;5052551;28;20025;-78
2023/12/06 05:21:09;;;;;;;136.82;40.33;;;;;;;5.76;100.00;99851.84;5070508;28;20059;-78
2023/12/06 05:23:35;;;;;;;128.20;36.70;;;;;;;5.59;100.00;99838.91;5070468;28;20021;-77
2023/12/06 05:26:01;;;;;;;135.95;33.28;;;;;;;5.73;100.00;99842.47;5070517;28;20040;-78
2023/12/06 05:28:26;;;;;;;114.18;35.42;;;;;;;5.50;100.00;99821.56;5070415;28;20074;-78
2023/12/06 05:30:52;;;;;;;132.38;34.83;;;;;;;5.50;100.00;99837.41;5070697;28;20071;-79
2023/12/06 05:33:17;;;;;;;139.38;37.38;;;;;;;5.62;100.00;99819.22;5070443;28;20507;-77
2023/12/06 05:35:43;;;;;;;119.05;34.40;;;;;;;5.86;100.00;99849.69;5070404;28;20593;-78
2023/12/06 05:38:08;;;;;;;118.78;33.38;;;;;;;5.56;100.00;99831.38;5046076;28;20051;-77
2023/12/06 05:40:34;;;;;;;137.45;35.30;;;;;;;5.89;100.00;99849.31;5066221;28;20029;-78
2023/12/06 05:43:00;;;;;;;119.75;32.78;;;;;;;5.60;100.00;99827.31;5060729;28;20111;-76
2023/12/06 05:45:25;;;;;;;130.68;36.47;;;;;;;5.47;100.00;99811.34;5060983;28;20029;-77
2023/12/06 05:47:50;;;;;;;127.05;35.40;;;;;;;5.75;100.00;99844.94;5039697;28;20029;-79
2023/12/06 05:50:16;;;;;;;134.93;38.20;;;;;;;5.87;100.00;99842.56;5049122;28;20037;-77
2023/12/06 05:52:41;;;;;;;124.47;39.42;;;;;;;5.68;100.00;99828.19;5052075;28;20166;-77
2023/12/06 05:55:07;;;;;;;120.95;35.92;;;;;;;5.66;100.00;99830.19;5070071;28;20037;-80
2023/12/06 05:57:33;;;;;;;118.65;32.28;;;;;;;5.65;100.00;99845.25;5052318;28;20489;-80
2023/12/06 05:59:58;;;;;;;114.40;34.20;;;;;;;5.83;100.00;99852.72;5070213;28;20032;-78
2023/12/06 06:02:24;;;;;;;123.95;33.17;;;;;;;5.94;100.00;99841.59;5070044;28;20025;-78
2023/12/06 06:04:49;;;;;;;114.18;32.90;;;;;;;5.71;100.00;99838.41;5069943;28;20177;-80
2023/12/06 06:07:15;;;;;;;140.73;41.25;;;;;;;5.51;100.00;99841.69;5070024;28;20116;-78
2023/12/06 06:09:40;;;;;;;120.18;34.67;;;;;;;5.93;100.00;99865.63;5069807;28;20032;-78
2023/12/06 06:12:07;;;;;;;130.85;37.65;;;;;;;5.88;100.00;99844.19;5068563;28;20035;-78
2023/12/06 06:14:33;;;;;;;127.38;37.08;;;;;;;5.71;100.00;99841.03;5069701;28;20551;-80
2023/12/06 06:16:59;;;;;;;132.82;43.38;;;;;;;5.69;100.00;99830.63;5069627;28;20017;-79
2023/12/06 06:19:24;;;;;;;125.93;36.45;;;;;;;5.89;100.00;99856.44;5069536;28;20035;-79
2023/12/06 06:21:49;;;;;;;126.25;39.03;;;;;;;5.90;100.00;99848.28;5051187;28;20052;-78
2023/12/06 06:26:51;;;;;;;140.32;35.90;;;;;;;5.78;100.00;99849.81;5047940;28;20045;-79
2023/12/06 06:29:16;;;;;;;133.98;39.28;;;;;;;5.97;100.00;99854.47;5049175;28;20032;-77
2023/12/06 06:31:41;;;;;;;112.25;35.28;;;;;;;5.92;100.00;99834.88;5049252;28;20103;-79
2023/12/06 06:34:07;;;;;;;129.27;37.42;;;;;;;6.00;100.00;99854.06;5049510;28;20017;-77
2023/12/06 06:36:32;;;;;;;131.38;36.00;;;;;;;5.77;100.00;99846.38;5048424;28;20110;-79
2023/12/06 06:38:58;;;;;;;139.98;36.80;;;;;;;5.57;100.00;99840.91;5049968;28;20108;-79
2023/12/06 06:41:24;;;;;;;128.02;39.35;;;;;;;5.47;100.00;99821.91;5049010;28;20033;-78
2023/12/06 06:43:51;;;;;;;123.82;37.78;;;;;;;5.73;100.00;99846.97;5049462;28;20029;-78
2023/12/06 06:46:16;;;;;;;130.45;37.28;;;;;;;5.82;100.00;99837.84;5048393;28;20120;-81
2023/12/06 06:48:42;;;;;;;124.65;36.75;;;;;;;5.92;100.00;99840.97;5049134;28;20465;-78
2023/12/06 06:51:09;;;;;;;117.45;36.08;;;;;;;5.76;100.00;99828.03;5038273;28;20068;-80
2023/12/06 06:53:34;;;;;;;104.32;36.03;;;;;;;5.97;100.00;99843.91;5049024;28;20111;-77
2023/12/06 06:56:01;;;;;;;115.93;35.13;;;;;;;5.74;100.00;99822.13;5048699;28;20112;-79
2023/12/06 06:58:27;;;;;;;109.93;35.60;;;;;;;5.89;100.00;99846.66;5048910;28;20028;-78
2023/12/06 07:00:53;;;;;;;97.80;35.97;;;;;;;6.03;100.00;99861.66;5048615;28;20060;-79
2023/12/06 07:03:19;;;;;;;101.72;31.17;;;;;;;6.16;100.00;99836.25;5048837;28;20181;-79
2023/12/06 07:05:44;;;;;;;89.50;30.25;;;;;;;6.15;100.00;99839.91;5049240;28;20534;-79
2023/12/06 07:08:10;;;;;;;97.95;32.45;;;;;;;6.25;100.00;99850.97;5049090;28;20031;-78
2023/12/06 07:10:37;;;;;;;85.43;30.80;;;;;;;6.12;100.00;99824.44;5049117;28;20033;-78
2023/12/06 07:13:02;;;;;;;83.40;31.58;;;;;;;6.15;100.00;99840.75;5048690;28;20039;-78
2023/12/06 07:15:28;;;;;;;80.82;30.08;;;;;;;6.09;100.00;99819.50;5048918;28;20500;-77
2023/12/06 07:17:53;;;;;;;73.57;26.90;;;;;;;6.25;100.00;99835.06;5048947;28;20116;-79
2023/12/06 07:20:19;;;;;;;75.18;28.38;;;;;;;6.11;100.00;99830.72;5049138;28;20025;-78
2023/12/06 07:22:44;;;;;;;77.65;28.17;;;;;;;6.28;100.00;99850.59;5048974;28;20604;-79
2023/12/06 07:25:10;;;;;;;92.07;34.40;;;;;;;6.21;100.00;99847.91;5048897;28;20418;-78
2023/12/06 07:27:36;;;;;;;83.75;32.08;;;;;;;6.12;100.00;99851.72;5048805;28;20021;-78
2023/12/06 07:30:04;;;;;;;93.03;32.72;;;;;;;6.13;100.00;99842.78;5048835;28;20163;-79
2023/12/06 07:32:30;;;;;;;81.60;29.92;;;;;;;6.25;100.00;99856.25;5049096;28;20025;-77
2023/12/06 07:34:55;;;;;;;90.50;32.35;;;;;;;6.20;100.00;99850.75;5048463;28;20094;-78
2023/12/06 07:37:21;;;;;;;77.75;30.70;;;;;;;6.17;100.00;99843.19;5051801;28;20044;-79
2023/12/06 07:39:46;;;;;;;91.28;41.17;;;;;;;6.30;100.00;99853.84;5065224;28;20032;-80
2023/12/06 07:42:11;;;;;;;75.75;31.15;;;;;;;6.13;100.00;99837.47;5061359;28;20029;-78
2023/12/06 07:44:37;;;;;;;76.25;27.42;;;;;;;6.10;100.00;99845.78;5048990;28;20033;-79
2023/12/06 07:47:02;;;;;;;75.95;27.52;;;;;;;6.07;100.00;99811.78;5066960;28;20036;-78
2023/12/06 07:49:28;;;;;;;78.60;28.70;;;;;;;6.39;100.00;99857.16;5063089;28;20107;-80
2023/12/06 07:51:55;;;;;;;81.88;30.73;;;;;;;6.22;100.00;99822.25;5063951;28;20044;-81
2023/12/06 07:54:20;;;;;;;74.88;29.00;;;;;;;6.35;100.00;99824.94;5049381;28;20110;-83
2023/12/06 07:56:46;;;;;;;73.53;28.30;;;;;;;6.26;100.00;99827.97;5064608;28;20056;-82
2023/12/06 07:59:12;;;;;;;67.22;24.80;;;;;;;6.40;100.00;99843.72;5066633;28;20013;-81
2023/12/06 08:01:37;;;;;;;70.72;25.85;;;;;;;12.16;100.00;99853.72;5065306;28;20445;-78
2023/12/06 08:04:03;;;;;;;71.10;29.27;;;;;;;11.37;100.00;99848.66;5044189;28;20033;-79
2023/12/06 08:06:28;;;;;;;234.95;92.10;;;;;;;12.53;90.52;99875.63;5060768;28;20025;-78
2023/12/06 08:08:54;;;;;;;52.60;20.60;;;;;;;12.08;90.76;99868.25;5061246;28;20036;-80
2023/12/06 08:18:07;;;;;;;57.38;22.42;;;;;;;7.76;100.00;99858.66;5041024;28;20064;-79
2023/12/06 08:20:32;;;;;;;62.85;25.92;;;;;;;7.13;100.00;99848.44;5039346;28;20093;-82
2023/12/06 08:22:58;;;;;;;74.20;26.70;;;;;;;7.01;100.00;99850.03;5053558;28;20060;-78
2023/12/06 08:25:23;;;;;;;84.57;27.25;;;;;;;6.54;100.00;99833.16;5056771;28;20544;-79
2023/12/06 08:27:49;;;;;;;81.70;27.98;;;;;;;6.47;100.00;99832.34;5055102;28;20661;-79
2023/12/06 08:30:14;;;;;;;86.70;32.08;;;;;;;6.48;100.00;99823.34;5052689;28;20036;-78
2023/12/06 08:32:40;;;;;;;78.28;29.45;;;;;;;6.49;100.00;99830.31;5051388;28;20032;-79
2023/12/06 09:33:10;;;;;;;97.63;31.38;;;;;;;6.53;100.00;99776.72;5026072;28;20616;-78
2023/12/06 09:35:35;;;;;;;96.65;28.80;;;;;;;6.52;100.00;99784.84;5050688;28;20032;-79
2023/12/06 09:38:01;;;;;;;98.65;28.42;;;;;;;6.36;100.00;99778.91;5050493;28;20463;-77
2023/12/06 09:40:26;;;;;;;93.63;29.48;;;;;;;6.51;100.00;99767.34;5050264;28;20036;-79
2023/12/06 09:42:58;;;;;;;101.38;30.98;;;;;;;6.75;100.00;99773.94;5041484;28;20101;-77
2023/12/06 09:45:24;;;;;;;103.97;33.38;;;;;;;6.39;100.00;99746.72;5050476;28;20079;-81
2023/12/06 09:47:52;;;;;;;96.25;28.67;;;;;;;6.53;100.00;99774.06;5029155;28;20029;-78
2023/12/06 09:50:17;;;;;;;165.63;44.25;;;;;;;6.50;100.00;99736.56;5012786;28;20048;-78
2023/12/06 09:52:43;;;;;;;115.90;37.13;;;;;;;6.69;100.00;99757.00;5038872;28;20025;-77
2023/12/06 09:55:09;;;;;;;108.50;34.83;;;;;;;6.57;100.00;99742.69;5049941;28;20053;-79
2023/12/06 09:57:35;;;;;;;119.35;30.25;;;;;;;6.74;100.00;99748.44;5050262;28;20028;-78
2023/12/06 10:00:00;;;;;;;91.65;27.25;;;;;;;6.75;100.00;99750.06;5050281;28;20363;-78
2023/12/06 10:02:27;;;;;;;96.88;34.22;;;;;;;6.86;100.00;99735.41;5049743;28;20048;-78
2023/12/06 10:04:53;;;;;;;111.65;32.28;;;;;;;6.93;100.00;99736.25;5049878;28;20528;-78
2023/12/06 10:07:19;;;;;;;94.43;30.48;;;;;;;7.04;100.00;99754.97;5043085;28;20182;-78
2023/12/06 10:09:51;;;;;;;110.38;29.52;;;;;;;6.75;100.00;99708.47;5049784;28;20071;-80
2023/12/06 10:12:16;;;;;;;89.63;27.65;;;;;;;6.52;100.00;99708.03;5049834;28;20058;-79
2023/12/06 10:14:42;;;;;;;199.20;76.90;;;;;;;6.70;100.00;99742.75;5049898;28;20079;-78
2023/12/06 10:17:10;;;;;;;140.35;50.13;;;;;;;6.95;100.00;99739.50;5048919;28;20025;-78
2023/12/06 10:19:36;;;;;;;;;;;;;;;6.99;100.00;99735.44;5050199;28;20024;-78
2023/12/06 10:22:03;;;;;;;89.18;30.58;;;;;;;6.88;100.00;99736.00;5049739;28;19924;-81
2023/12/06 10:24:29;;;;;;;86.43;27.63;;;;;;;6.80;100.00;99713.16;5031832;28;20558;-78
2023/12/06 10:27:10;;;;;;;81.00;27.27;;;;;;;6.98;100.00;99733.78;5049250;28;20041;-78
2023/12/06 10:29:36;;;;;;;90.18;27.95;;;;;;;6.66;100.00;99709.72;5049629;28;20109;-78
2023/12/06 10:32:02;;;;;;;103.95;27.73;;;;;;;6.92;100.00;99714.19;5049376;28;20108;-79
2023/12/06 10:34:31;;;;;;;96.38;28.17;;;;;;;6.91;100.00;99707.28;5027796;28;20050;-78
2023/12/06 10:36:58;;;;;;;105.50;27.83;;;;;;;6.95;100.00;99699.75;5029217;28;20099;-77
2023/12/06 10:39:29;;;;;;;106.82;32.70;;;;;;;6.99;100.00;99703.63;5027971;28;20062;-78
2023/12/06 10:41:56;;;;;;;110.32;30.90;;;;;;;6.92;100.00;99690.34;5029044;28;20025;-79
2023/12/06 10:44:21;;;;;;;113.18;33.17;;;;;;;6.70;100.00;99671.19;5029477;28;20053;-78
2023/12/06 10:46:47;;;;;;;101.60;29.40;;;;;;;6.46;100.00;99650.56;5028713;28;20065;-78
2023/12/06 10:49:15;;;;;;;127.25;34.65;;;;;;;6.86;100.00;99698.28;5029173;28;20092;-77
2023/12/06 10:51:42;;;;;;;103.65;30.58;;;;;;;6.67;100.00;99684.81;5029337;28;20032;-78
2023/12/06 10:54:09;;;;;;;110.18;31.65;;;;;;;6.80;100.00;99684.00;5027207;28;20124;-77
2023/12/06 10:56:38;;;;;;;119.97;32.83;;;;;;;6.72;100.00;99703.59;5029259;28;20029;-77
2023/12/06 10:59:05;;;;;;;134.93;33.08;;;;;;;6.89;100.00;99697.91;5027424;28;20037;-78
2023/12/06 11:01:32;;;;;;;120.10;33.53;;;;;;;6.92;100.00;99692.97;5027775;28;20021;-78
2023/12/06 11:03:59;;;;;;;110.03;31.83;;;;;;;6.69;100.00;99677.50;5027218;28;20688;-81
2023/12/06 11:06:31;;;;;;;112.22;31.27;;;;;;;6.78;100.00;99680.75;5029231;28;20021;-78
2023/12/06 11:09:13;;;;;;;112.43;30.63;;;;;;;6.74;100.00;99700.72;5028299;28;20427;-78
2023/12/06 11:11:55;;;;;;;103.55;29.65;;;;;;;6.52;100.00;99698.28;5028804;28;20029;-78
2023/12/06 11:14:23;;;;;;;99.13;26.50;;;;;;;6.44;100.00;99696.63;5029115;28;20040;-79
2023/12/06 11:17:20;;;;;;;123.05;29.77;;;;;;;6.71;100.00;99701.16;5027456;28;20033;-78
2023/12/06 11:19:45;;;;;;;117.43;30.23;;;;;;;6.33;100.00;99652.16;5028337;28;20128;-77
2023/12/06 11:22:12;;;;;;;108.65;28.67;;;;;;;6.66;100.00;99696.47;5028234;28;20108;-77
2023/12/06 11:24:38;;;;;;;140.60;33.47;;;;;;;6.44;100.00;99666.66;5028164;28;20537;-78
2023/12/06 11:27:07;;;;;;;107.15;29.98;;;;;;;6.63;100.00;99691.56;5028347;28;20026;-78
2023/12/06 11:29:32;;;;;;;95.03;27.75;;;;;;;6.70;100.00;99689.75;5028346;28;20037;-77
2023/12/06 11:31:58;;;;;;;107.25;28.98;;;;;;;6.58;100.00;99667.50;5028453;28;20091;-79
2023/12/06 11:34:36;;;;;;;115.80;29.67;;;;;;;6.64;100.00;99642.84;5038457;28;20072;-77
2023/12/06 11:37:03;;;;;;;99.13;28.77;;;;;;;6.60;100.00;99695.44;5048706;28;20112;-78
2023/12/06 11:39:29;;;;;;;99.05;30.88;;;;;;;6.67;100.00;99686.66;5046711;28;20108;-82
2023/12/06 11:41:56;;;;;;;118.28;32.22;;;;;;;6.75;100.00;99687.28;5048514;28;20028;-78
2023/12/06 11:44:21;;;;;;;103.78;31.80;;;;;;;6.74;100.00;99675.06;5048000;28;20037;-78
2023/12/06 11:46:51;;;;;;;125.55;35.53;;;;;;;6.67;100.00;99679.53;5047576;28;20033;-77
2023/12/06 11:49:27;;;;;;;109.38;30.58;;;;;;;6.55;100.00;99665.25;5046954;28;20498;-82
2023/12/06 11:52:00;;;;;;;115.93;29.98;;;;;;;6.48;100.00;99667.06;5047663;28;20024;-78
2023/12/06 11:54:26;;;;;;;112.50;31.02;;;;;;;6.51;100.00;99658.72;5047493;28;20170;-81
2023/12/06 11:56:52;;;;;;;111.35;30.73;;;;;;;6.66;100.00;99683.22;5034517;28;20558;-78
2023/12/06 11:59:18;;;;;;;102.88;29.52;;;;;;;6.35;100.00;99660.72;5019864;28;20021;-78
2023/12/06 12:01:45;;;;;;;111.03;30.70;;;;;;;6.70;100.00;99667.69;5036134;28;20043;-78
2023/12/06 12:04:11;;;;;;;109.07;29.10;;;;;;;6.36;100.00;99662.38;5044710;28;20021;-82
2023/12/06 12:06:36;;;;;;;134.20;34.35;;;;;;;6.39;100.00;99658.50;5047475;28;20667;-77
2023/12/06 12:09:02;;;;;;;121.13;32.58;;;;;;;6.67;100.00;99681.38;5048461;28;20025;-80
2023/12/06 12:11:31;;;;;;;113.20;33.13;;;;;;;6.37;100.00;99645.44;5052035;28;20087;-79
2023/12/06 12:13:58;;;;;;;145.05;35.25;;;;;;;6.61;100.00;99677.69;5051405;28;20508;-79